Time;durP1;ratioP1;P1;durP2;ratioP2;P2;SDS_P1;SDS_P2;PMS_P1;PMS_P2;Temp;Humidity;BMP_temperature;BMP_pressure;BME280_temperature;BME280_humidity;BME280_pressure;Samples;Min_cycle;Max_cycle;Signal;HPM_P1;HPM_P2
2023/08/16 00:00:07;;;;;;;6.03;3.67;;;22.30;99.90;;;;;;5043596;28;20021;-80
2023/08/16 00:02:33;;;;;;;8.50;3.22;;;22.30;99.90;;;;;;5045109;28;20022;-79
2023/08/16 00:05:00;;;;;;;9.65;3.38;;;22.20;99.90;;;;;;5041700;28;20040;-80
2023/08/16 00:07:26;;;;;;;8.63;3.28;;;22.10;99.90;;;;;;5033062;28;20061;-80
2023/08/16 00:09:52;;;;;;;11.35;3.60;;;22.10;99.90;;;;;;5031846;28;20032;-80
2023/08/16 00:12:17;;;;;;;8.30;3.63;;;22.10;99.90;;;;;;5032442;28;20029;-79
2023/08/16 00:14:43;;;;;;;6.78;3.10;;;22.10;99.90;;;;;;5031416;28;20032;-79
2023/08/16 00:17:09;;;;;;;8.35;3.30;;;22.10;99.90;;;;;;5031402;28;20075;-80
2023/08/16 00:19:37;;;;;;;8.38;3.42;;;22.10;99.90;;;;;;5031072;28;20140;-80
2023/08/16 00:22:02;;;;;;;3.83;3.17;;;22.10;99.90;;;;;;5032383;28;20114;-79
2023/08/16 00:24:28;;;;;;;6.38;3.10;;;22.10;99.90;;;;;;5031473;28;20057;-80
2023/08/16 00:26:54;;;;;;;6.43;3.47;;;22.10;99.90;;;;;;5031104;28;20029;-80
2023/08/16 00:29:20;;;;;;;4.05;3.28;;;22.10;99.90;;;;;;5047690;28;20038;-79
2023/08/16 00:31:45;;;;;;;4.07;3.17;;;22.10;99.90;;;;;;5030810;28;20025;-79
2023/08/16 00:34:11;;;;;;;9.02;3.78;;;22.10;99.90;;;;;;5031426;28;20025;-79
2023/08/16 00:36:37;;;;;;;7.25;3.72;;;22.10;99.90;;;;;;5031025;28;20079;-79
2023/08/16 00:39:03;;;;;;;6.03;3.42;;;22.10;99.90;;;;;;5031403;28;20029;-79
2023/08/16 00:41:29;;;;;;;8.20;3.40;;;21.70;99.90;;;;;;5047796;28;20045;-79
2023/08/16 00:43:54;;;;;;;7.75;3.58;;;21.60;99.90;;;;;;5031495;28;20064;-79
2023/08/16 00:46:21;;;;;;;9.77;3.53;;;21.70;99.90;;;;;;5032393;28;20079;-79
2023/08/16 00:48:47;;;;;;;7.45;4.13;;;21.80;99.90;;;;;;5033816;28;20095;-79
2023/08/16 00:51:14;;;;;;;10.98;3.60;;;21.80;99.90;;;;;;5035859;28;20483;-79
2023/08/16 00:53:42;;;;;;;7.28;3.88;;;21.90;99.90;;;;;;5021446;28;20072;-78
2023/08/16 00:56:08;;;;;;;8.10;3.53;;;21.90;99.90;;;;;;5014651;28;20484;-79
2023/08/16 00:58:34;;;;;;;6.88;3.75;;;21.90;99.90;;;;;;5025783;28;20086;-80
2023/08/16 01:01:00;;;;;;;6.88;3.28;;;21.90;99.90;;;;;;5034884;28;20021;-78
2023/08/16 01:03:25;;;;;;;7.95;4.30;;;21.70;99.90;;;;;;5033750;28;20040;-79
2023/08/16 01:05:52;;;;;;;8.10;4.28;;;21.80;99.90;;;;;;5033471;28;20068;-78
2023/08/16 01:08:18;;;;;;;6.53;3.50;;;21.80;99.90;;;;;;5034706;28;20021;-79
2023/08/16 01:10:52;;;;;;;9.55;4.20;;;21.80;99.90;;;;;;5031778;28;20033;-80
2023/08/16 01:13:28;;;;;;;9.45;3.85;;;21.80;99.90;;;;;;5031594;28;20380;-79
2023/08/16 01:15:56;;;;;;;7.85;4.10;;;21.80;99.90;;;;;;5034155;28;20025;-79
2023/08/16 01:18:25;;;;;;;6.95;4.00;;;21.80;99.90;;;;;;5033847;28;20030;-78
2023/08/16 01:20:52;;;;;;;7.93;4.25;;;21.80;99.90;;;;;;5034448;28;20026;-80
2023/08/16 01:23:32;;;;;;;8.05;4.32;;;21.80;99.90;;;;;;5035132;28;20021;-77
2023/08/16 01:26:30;;;;;;;4.88;3.65;;;21.80;99.90;;;;;;5035039;28;20033;-80
2023/08/16 01:28:58;;;;;;;7.60;3.90;;;21.70;99.90;;;;;;5027038;28;20423;-78
2023/08/16 01:31:24;;;;;;;8.27;3.63;;;21.70;99.90;;;;;;5033929;28;20557;-79
2023/08/16 01:33:51;;;;;;;7.63;3.63;;;21.70;99.90;;;;;;5035033;28;20029;-79
2023/08/16 01:36:17;;;;;;;8.25;3.88;;;21.70;99.90;;;;;;5034880;28;20391;-78
2023/08/16 01:38:42;;;;;;;6.93;3.45;;;21.80;99.90;;;;;;5033483;28;20119;-78
2023/08/16 01:41:17;;;;;;;6.57;3.70;;;21.80;99.90;;;;;;5035062;28;20022;-79
2023/08/16 01:43:48;;;;;;;6.43;4.20;;;21.80;99.90;;;;;;5033565;28;20026;-79
2023/08/16 01:46:15;;;;;;;5.78;3.72;;;21.80;99.90;;;;;;5028596;28;20032;-77
2023/08/16 01:48:43;;;;;;;7.95;4.38;;;21.80;99.90;;;;;;5013292;28;20032;-78
2023/08/16 01:51:09;;;;;;;9.43;4.18;;;21.80;99.90;;;;;;5030179;28;20041;-79
2023/08/16 01:53:37;;;;;;;9.38;4.45;;;21.80;99.90;;;;;;5026904;28;20038;-78
2023/08/16 01:56:03;;;;;;;10.68;4.47;;;21.80;99.90;;;;;;5030175;28;20022;-78
2023/08/16 01:58:29;;;;;;;14.63;4.47;;;21.70;99.90;;;;;;5023034;28;20067;-79
2023/08/16 02:00:55;;;;;;;7.93;4.45;;;21.70;99.90;;;;;;5032774;28;20064;-80
2023/08/16 02:03:21;;;;;;;8.20;4.78;;;21.70;99.90;;;;;;5033222;28;20026;-79
2023/08/16 02:05:46;;;;;;;7.68;4.97;;;21.80;99.90;;;;;;5034774;28;20053;-78
2023/08/16 02:08:12;;;;;;;6.43;3.92;;;21.70;99.90;;;;;;5049394;28;20034;-79
2023/08/16 02:10:38;;;;;;;7.32;3.70;;;21.60;99.90;;;;;;5033345;28;20029;-79
2023/08/16 02:13:04;;;;;;;5.85;3.30;;;21.60;99.90;;;;;;5033029;28;20393;-79
2023/08/16 02:15:30;;;;;;;8.90;3.95;;;21.60;99.90;;;;;;5033181;28;20024;-79
2023/08/16 02:17:56;;;;;;;7.80;4.32;;;21.60;99.90;;;;;;5032150;28;20025;-78
2023/08/16 02:20:21;;;;;;;11.13;4.78;;;21.60;99.90;;;;;;5029507;28;20479;-79
2023/08/16 02:22:47;;;;;;;9.23;4.50;;;21.60;99.90;;;;;;5033297;28;20470;-79
2023/08/16 02:25:13;;;;;;;9.50;4.55;;;21.60;99.90;;;;;;5032741;28;20036;-79
2023/08/16 02:27:40;;;;;;;7.65;4.10;;;21.50;99.90;;;;;;5032667;28;20029;-79
2023/08/16 02:30:06;;;;;;;6.15;4.35;;;21.50;99.90;;;;;;5032350;28;20038;-79
2023/08/16 02:32:36;;;;;;;9.82;4.63;;;21.50;99.90;;;;;;5032823;28;20017;-79
2023/08/16 02:35:03;;;;;;;7.82;4.70;;;21.50;99.90;;;;;;5032637;28;20451;-79
2023/08/16 02:37:30;;;;;;;11.77;4.43;;;21.40;99.90;;;;;;5033153;28;20108;-79
2023/08/16 02:39:56;;;;;;;11.18;4.53;;;21.40;99.90;;;;;;5032498;28;20391;-79
2023/08/16 02:42:22;;;;;;;8.93;4.05;;;21.40;99.90;;;;;;5032628;28;20029;-80
2023/08/16 02:44:48;;;;;;;5.20;4.22;;;21.40;99.90;;;;;;5033587;28;20071;-79
2023/08/16 02:47:14;;;;;;;5.70;3.63;;;21.50;99.90;;;;;;5032331;28;20116;-80
2023/08/16 02:49:40;;;;;;;6.70;4.57;;;21.50;99.90;;;;;;5033664;28;20018;-79
2023/08/16 02:52:06;;;;;;;8.80;4.85;;;21.40;99.90;;;;;;5032317;28;20029;-79
2023/08/16 02:54:31;;;;;;;8.75;5.13;;;21.40;99.90;;;;;;5031999;28;20025;-80
2023/08/16 02:56:57;;;;;;;8.20;4.80;;;21.40;99.90;;;;;;5032049;28;20025;-79
2023/08/16 02:59:23;;;;;;;7.68;4.78;;;21.40;99.90;;;;;;5031999;28;20030;-79
2023/08/16 03:01:49;;;;;;;7.32;4.90;;;21.40;99.90;;;;;;5032344;28;20029;-79
2023/08/16 03:04:15;;;;;;;8.77;5.15;;;21.40;99.90;;;;;;5032099;28;20030;-78
2023/08/16 03:06:41;;;;;;;9.02;5.53;;;21.40;99.90;;;;;;5033567;28;20029;-79
2023/08/16 03:09:07;;;;;;;9.70;4.93;;;21.40;99.90;;;;;;5030190;28;20080;-79
2023/08/16 03:11:32;;;;;;;8.90;5.30;;;21.40;99.90;;;;;;5013455;28;20038;-78
2023/08/16 03:13:58;;;;;;;6.25;5.28;;;21.40;99.90;;;;;;5012161;28;20024;-78
2023/08/16 03:16:24;;;;;;;9.18;4.47;;;21.30;99.90;;;;;;5012069;28;20098;-79
2023/08/16 03:18:50;;;;;;;8.20;4.55;;;21.30;99.90;;;;;;5013344;28;20038;-78
2023/08/16 03:21:15;;;;;;;8.50;4.85;;;21.30;99.90;;;;;;5013118;28;20033;-79
2023/08/16 03:23:41;;;;;;;7.85;5.32;;;21.30;99.90;;;;;;5012053;28;20032;-78
2023/08/16 03:26:07;;;;;;;6.22;5.13;;;21.30;99.90;;;;;;5011961;28;20076;-79
2023/08/16 03:28:32;;;;;;;7.65;6.05;;;21.30;99.90;;;;;;5013077;28;20075;-79
2023/08/16 03:30:58;;;;;;;11.00;7.25;;;21.30;99.90;;;;;;5014445;28;20069;-79
2023/08/16 03:33:24;;;;;;;11.45;6.82;;;21.30;99.90;;;;;;5032923;28;20025;-79
2023/08/16 03:35:50;;;;;;;10.52;6.10;;;21.30;99.90;;;;;;5031516;28;20025;-78
2023/08/16 03:38:16;;;;;;;7.22;5.10;;;21.20;99.90;;;;;;5032841;28;20101;-79
2023/08/16 03:40:41;;;;;;;7.70;5.47;;;21.30;99.90;;;;;;5031639;28;20026;-79
2023/08/16 03:43:07;;;;;;;6.40;5.10;;;21.20;99.90;;;;;;5032869;28;20024;-79
2023/08/16 03:45:33;;;;;;;12.77;5.13;;;21.10;99.90;;;;;;5031363;28;20033;-80
2023/08/16 03:47:59;;;;;;;6.93;5.60;;;21.10;99.90;;;;;;5047845;28;20025;-79
2023/08/16 03:50:24;;;;;;;10.13;6.53;;;21.20;99.90;;;;;;5031538;28;20029;-78
2023/08/16 03:52:51;;;;;;;10.80;5.70;;;21.20;99.90;;;;;;5031604;28;20092;-79
2023/08/16 03:55:17;;;;;;;9.20;6.55;;;21.20;99.90;;;;;;5032561;28;20487;-79
2023/08/16 03:57:42;;;;;;;9.98;5.93;;;21.20;99.90;;;;;;5032511;28;20105;-79
2023/08/16 04:00:11;;;;;;;7.78;5.88;;;21.20;99.90;;;;;;5032250;28;20037;-79
2023/08/16 04:02:40;;;;;;;9.82;6.90;;;21.20;99.90;;;;;;5031566;28;20080;-79
2023/08/16 04:05:14;;;;;;;8.48;6.22;;;21.20;99.90;;;;;;5032266;28;20029;-78
2023/08/16 04:07:40;;;;;;;10.85;6.43;;;21.10;99.90;;;;;;5030883;28;20026;-78
2023/08/16 04:10:07;;;;;;;12.82;6.05;;;21.10;99.90;;;;;;5032087;28;20030;-79
2023/08/16 04:12:32;;;;;;;6.32;4.90;;;21.10;99.90;;;;;;5031426;28;20469;-80
2023/08/16 04:14:58;;;;;;;12.23;5.38;;;21.10;99.90;;;;;;5031350;28;20116;-80
2023/08/16 04:17:24;;;;;;;5.20;4.70;;;21.00;99.90;;;;;;5031350;28;20116;-80
2023/08/16 04:19:49;;;;;;;8.55;5.50;;;21.20;99.90;;;;;;5031358;28;20025;-80
2023/08/16 04:22:15;;;;;;;9.00;6.05;;;21.20;99.90;;;;;;5031504;28;20529;-79
2023/08/16 04:24:41;;;;;;;10.80;5.55;;;21.00;99.90;;;;;;5035269;28;20065;-78
2023/08/16 04:27:07;;;;;;;8.35;5.47;;;21.00;99.90;;;;;;5034918;28;20066;-79
2023/08/16 04:29:33;;;;;;;9.57;6.03;;;21.10;99.90;;;;;;5035072;28;20414;-79
2023/08/16 04:31:59;;;;;;;12.85;6.20;;;21.10;99.90;;;;;;5034864;28;20039;-79
2023/08/16 04:34:25;;;;;;;8.73;5.75;;;21.10;99.90;;;;;;5036352;28;20036;-79
2023/08/16 04:36:50;;;;;;;8.60;5.82;;;21.20;99.90;;;;;;5034824;28;20051;-78
2023/08/16 04:39:16;;;;;;;8.23;5.40;;;21.20;99.90;;;;;;5034977;28;20025;-79
2023/08/16 04:41:42;;;;;;;9.88;5.28;;;21.20;99.90;;;;;;5034785;28;20391;-79
2023/08/16 04:44:07;;;;;;;8.27;6.28;;;21.20;99.90;;;;;;5034692;28;20033;-79
2023/08/16 04:46:33;;;;;;;9.55;6.70;;;21.20;99.90;;;;;;5032404;28;20021;-79
2023/08/16 04:48:59;;;;;;;11.93;6.72;;;21.10;99.90;;;;;;5034731;28;20036;-79
2023/08/16 04:51:25;;;;;;;12.38;5.97;;;21.10;99.90;;;;;;5034545;28;20033;-80
2023/08/16 04:53:51;;;;;;;9.38;5.72;;;21.00;99.90;;;;;;5034447;28;20379;-79
2023/08/16 04:56:17;;;;;;;14.27;5.68;;;20.90;99.90;;;;;;5034115;28;20022;-79
2023/08/16 04:58:43;;;;;;;8.82;5.55;;;20.90;99.90;;;;;;5034469;28;20458;-78
2023/08/16 05:01:09;;;;;;;10.80;6.13;;;20.80;99.90;;;;;;5034756;28;20519;-79
2023/08/16 05:03:35;;;;;;;11.23;5.28;;;20.90;99.90;;;;;;5035818;28;20022;-79
2023/08/16 05:06:04;;;;;;;10.82;5.50;;;20.90;99.90;;;;;;5034707;28;20385;-78
2023/08/16 05:08:33;;;;;;;9.02;6.65;;;20.90;99.90;;;;;;5034518;28;20028;-79
2023/08/16 05:11:00;;;;;;;11.50;7.15;;;21.00;99.90;;;;;;5035820;28;20105;-79
2023/08/16 05:13:25;;;;;;;8.38;6.97;;;20.90;99.90;;;;;;5035637;28;20427;-79
2023/08/16 05:15:51;;;;;;;11.73;7.80;;;20.90;99.90;;;;;;5034495;28;20060;-79
2023/08/16 05:18:17;;;;;;;11.40;7.38;;;20.90;99.90;;;;;;5050942;28;20110;-80
2023/08/16 05:20:43;;;;;;;11.02;7.07;;;20.90;99.90;;;;;;5034574;28;20029;-79
2023/08/16 05:23:08;;;;;;;11.68;8.30;;;20.90;99.90;;;;;;5034328;28;20026;-79
2023/08/16 05:25:37;;;;;;;9.43;8.35;;;20.90;99.90;;;;;;5034409;28;20026;-79
2023/08/16 05:28:03;;;;;;;11.65;8.48;;;20.90;99.90;;;;;;5035221;28;20025;-78
2023/08/16 05:30:29;;;;;;;13.93;8.60;;;20.90;99.90;;;;;;5035691;28;20025;-80
2023/08/16 05:32:55;;;;;;;13.50;7.72;;;20.90;99.90;;;;;;5035173;28;20025;-79
2023/08/16 05:35:22;;;;;;;14.05;8.73;;;20.90;99.90;;;;;;5034349;28;20026;-80
2023/08/16 05:37:48;;;;;;;12.45;8.55;;;20.90;99.90;;;;;;5024021;28;20045;-79
2023/08/16 05:40:14;;;;;;;11.98;8.73;;;20.90;99.90;;;;;;5040365;28;20021;-79
2023/08/16 05:42:40;;;;;;;13.75;9.32;;;20.90;99.90;;;;;;5035701;28;20032;-79
2023/08/16 05:45:07;;;;;;;11.48;7.93;;;20.90;99.90;;;;;;5034278;28;20475;-80
2023/08/16 05:47:32;;;;;;;13.10;7.60;;;20.90;99.90;;;;;;5023573;28;20470;-79
2023/08/16 05:49:59;;;;;;;11.10;7.57;;;20.90;99.90;;;;;;5014246;28;20028;-79
2023/08/16 05:52:26;;;;;;;10.95;7.93;;;20.80;99.90;;;;;;5015671;28;20026;-79
2023/08/16 05:54:52;;;;;;;9.23;7.25;;;20.80;99.90;;;;;;5013825;28;20037;-78
2023/08/16 05:57:18;;;;;;;12.68;8.02;;;20.80;99.90;;;;;;5013996;28;20025;-79
2023/08/16 05:59:43;;;;;;;12.57;8.23;;;20.90;99.90;;;;;;5014863;28;20115;-79
2023/08/16 06:02:09;;;;;;;9.50;7.00;;;20.90;99.90;;;;;;5024559;28;20013;-79
2023/08/16 06:04:36;;;;;;;8.48;7.10;;;20.90;99.90;;;;;;5033857;28;20372;-79
2023/08/16 06:07:02;;;;;;;9.13;7.50;;;21.00;99.90;;;;;;5033580;28;20030;-79
2023/08/16 06:09:28;;;;;;;19.83;8.25;;;21.10;99.90;;;;;;5033431;28;20116;-79
2023/08/16 06:11:54;;;;;;;12.68;8.48;;;21.10;99.90;;;;;;5034713;28;20096;-80
2023/08/16 06:14:20;;;;;;;13.10;7.97;;;21.10;99.90;;;;;;5033478;28;20029;-79
2023/08/16 06:16:46;;;;;;;9.05;7.30;;;21.10;99.90;;;;;;5032403;28;20018;-80
2023/08/16 06:19:13;;;;;;;11.88;7.97;;;21.00;99.90;;;;;;5033062;28;20026;-78
2023/08/16 06:21:40;;;;;;;10.38;6.28;;;20.90;99.90;;;;;;5029889;28;20017;-78
2023/08/16 06:24:08;;;;;;;12.68;7.30;;;20.90;99.90;;;;;;5017383;28;20034;-80
2023/08/16 06:26:34;;;;;;;13.50;7.32;;;20.80;99.90;;;;;;5030812;28;20034;-79
2023/08/16 06:29:00;;;;;;;14.45;7.97;;;20.90;99.90;;;;;;5015669;28;20034;-78
2023/08/16 06:31:26;;;;;;;11.27;7.47;;;21.00;99.90;;;;;;5039617;28;20549;-78
2023/08/16 06:33:52;;;;;;;12.10;7.85;;;21.10;99.90;;;;;;5013546;28;20025;-79
2023/08/16 06:36:19;;;;;;;10.70;7.30;;;21.20;99.90;;;;;;5031127;28;20112;-77
2023/08/16 06:38:45;;;;;;;10.15;7.60;;;21.20;99.90;;;;;;5050928;28;20040;-78
2023/08/16 06:41:12;;;;;;;9.88;8.80;;;21.20;99.90;;;;;;5034715;28;20017;-78
2023/08/16 06:43:38;;;;;;;9.27;8.38;;;21.30;99.90;;;;;;5015604;28;20034;-78
2023/08/16 06:46:04;;;;;;;10.30;8.65;;;21.30;99.90;;;;;;5017686;28;20100;-78
2023/08/16 06:48:31;;;;;;;11.27;7.47;;;21.30;99.90;;;;;;5028807;28;20059;-77
2023/08/16 06:50:56;;;;;;;10.30;7.00;;;21.30;99.90;;;;;;5041103;28;20021;-78
2023/08/16 06:53:23;;;;;;;8.00;7.20;;;21.30;99.90;;;;;;5052954;28;20040;-78
2023/08/16 06:55:48;;;;;;;10.77;6.78;;;21.30;99.90;;;;;;5038257;28;20025;-78
2023/08/16 06:58:14;;;;;;;11.57;7.32;;;21.30;99.90;;;;;;5048183;28;20033;-78
2023/08/16 07:00:45;;;;;;;9.10;7.28;;;21.30;99.90;;;;;;5034229;28;20026;-78
2023/08/16 07:03:11;;;;;;;10.90;6.38;;;21.30;99.90;;;;;;5017249;28;20034;-78
2023/08/16 07:05:37;;;;;;;11.85;7.00;;;21.30;99.90;;;;;;5017959;28;20018;-79
2023/08/16 07:08:03;;;;;;;8.68;6.78;;;21.40;99.90;;;;;;5032147;28;20032;-79
2023/08/16 07:10:29;;;;;;;11.75;6.65;;;21.30;99.90;;;;;;5019341;28;20057;-77
2023/08/16 07:12:55;;;;;;;10.30;6.60;;;21.40;99.90;;;;;;5044803;28;20026;-78
2023/08/16 07:15:21;;;;;;;10.70;7.00;;;21.50;99.90;;;;;;5036464;28;20018;-77
2023/08/16 07:17:46;;;;;;;11.35;8.55;;;21.50;99.90;;;;;;5037424;28;20475;-78
2023/08/16 07:20:12;;;;;;;12.15;7.50;;;21.50;99.90;;;;;;5028554;28;20121;-79
2023/08/16 07:22:38;;;;;;;10.75;7.45;;;21.50;99.90;;;;;;5016557;28;20439;-79
2023/08/16 07:25:06;;;;;;;11.93;9.20;;;21.50;99.90;;;;;;5041572;28;20031;-79
2023/08/16 07:27:32;;;;;;;23.67;9.05;;;21.60;99.90;;;;;;5020699;28;20030;-79
2023/08/16 07:29:58;;;;;;;18.30;8.10;;;21.80;99.90;;;;;;5011759;28;20561;-78
2023/08/16 07:32:24;;;;;;;11.05;7.72;;;21.80;99.90;;;;;;5011715;28;20140;-78
2023/08/16 07:34:50;;;;;;;11.77;6.57;;;21.80;99.90;;;;;;5011769;28;20021;-79
2023/08/16 07:37:17;;;;;;;7.57;6.78;;;21.80;99.90;;;;;;5013109;28;20022;-79
2023/08/16 07:39:43;;;;;;;8.88;7.03;;;21.80;99.90;;;;;;5012975;28;20025;-79
2023/08/16 07:42:09;;;;;;;7.78;6.97;;;21.90;99.90;;;;;;5019481;28;20028;-78
2023/08/16 07:44:36;;;;;;;11.20;6.45;;;22.00;99.90;;;;;;5031590;28;20112;-77
2023/08/16 07:47:02;;;;;;;7.78;6.07;;;22.00;99.90;;;;;;5031398;28;20033;-78
2023/08/16 07:49:29;;;;;;;8.07;6.47;;;21.90;99.90;;;;;;5031307;28;20018;-79
2023/08/16 07:51:56;;;;;;;7.43;6.43;;;21.90;99.90;;;;;;5032611;28;20053;-78
2023/08/16 07:54:23;;;;;;;12.10;5.78;;;21.90;99.90;;;;;;5047949;28;20087;-78
2023/08/16 07:56:53;;;;;;;11.07;6.30;;;22.00;99.90;;;;;;5030994;28;20021;-79
2023/08/16 07:59:19;;;;;;;9.13;6.35;;;22.00;99.90;;;;;;5051851;28;20030;-77
2023/08/16 08:01:45;;;;;;;8.40;5.97;;;22.20;99.90;;;;;;5035279;28;20108;-78
2023/08/16 08:04:11;;;;;;;5.90;5.40;;;22.20;99.90;;;;;;5035546;28;20022;-78
2023/08/16 08:06:37;;;;;;;22.88;6.47;;;22.30;99.90;;;;;;5037118;28;20438;-78
2023/08/16 08:09:04;;;;;;;6.15;4.70;;;22.30;99.90;;;;;;5030582;28;20045;-77
2023/08/16 08:11:29;;;;;;;7.57;5.13;;;22.40;99.90;;;;;;5047417;28;20036;-76
2023/08/16 08:13:56;;;;;;;7.32;5.45;;;22.30;99.90;;;;;;5029322;28;20021;-78
2023/08/16 08:16:23;;;;;;;6.45;4.97;;;22.40;99.90;;;;;;5031363;28;20030;-77
2023/08/16 08:18:49;;;;;;;6.25;5.18;;;22.60;99.90;;;;;;5034874;28;20028;-79
2023/08/16 08:21:14;;;;;;;8.65;5.18;;;22.60;99.90;;;;;;5026647;28;20018;-79
2023/08/16 08:23:40;;;;;;;12.93;5.18;;;22.50;99.90;;;;;;5014861;28;20423;-79
2023/08/16 08:26:06;;;;;;;9.38;5.40;;;22.70;99.90;;;;;;5015906;28;20034;-79
2023/08/16 08:28:32;;;;;;;8.05;5.50;;;22.60;99.90;;;;;;5014816;28;20037;-79
2023/08/16 08:31:04;;;;;;;6.95;4.75;;;22.60;99.90;;;;;;5013906;28;20301;-78
2023/08/16 08:33:30;;;;;;;8.88;5.70;;;22.60;99.90;;;;;;5014937;28;20032;-79
2023/08/16 08:35:57;;;;;;;6.85;4.40;;;22.70;99.90;;;;;;5014529;28;20369;-78
2023/08/16 08:38:23;;;;;;;8.82;4.25;;;22.80;99.90;;;;;;5014626;28;20014;-78
2023/08/16 08:40:59;;;;;;;8.05;4.53;;;22.90;99.90;;;;;;5015073;28;20419;-80
2023/08/16 08:43:35;;;;;;;7.15;4.20;;;22.90;99.90;;;;;;5014515;28;20029;-79
2023/08/16 08:46:02;;;;;;;9.52;3.72;;;22.90;99.90;;;;;;5014044;28;20116;-79
2023/08/16 08:48:29;;;;;;;5.20;4.22;;;23.00;99.90;;;;;;5018899;28;20017;-78
2023/08/16 08:50:56;;;;;;;5.22;4.00;;;23.10;99.90;;;;;;5035793;28;20072;-79
2023/08/16 08:53:23;;;;;;;5.53;3.30;;;23.00;99.90;;;;;;5034379;28;20075;-78
2023/08/16 08:55:54;;;;;;;9.95;3.85;;;23.10;99.90;;;;;;5034063;28;20037;-78
2023/08/16 08:58:22;;;;;;;10.07;4.03;;;23.20;99.90;;;;;;5035739;28;20032;-79
2023/08/16 09:00:49;;;;;;;5.47;3.72;;;23.10;99.90;;;;;;5036189;28;20495;-80
2023/08/16 09:03:18;;;;;;;6.03;4.22;;;22.90;99.90;;;;;;5034427;28;20021;-79
2023/08/16 09:05:52;;;;;;;5.97;4.13;;;22.90;99.90;;;;;;5034073;28;20561;-79
2023/08/16 09:08:20;;;;;;;6.45;3.67;;;22.90;99.90;;;;;;5033332;28;20067;-78
2023/08/16 09:10:46;;;;;;;4.65;3.72;;;23.00;99.90;;;;;;5034091;28;20045;-78
2023/08/16 09:13:14;;;;;;;7.82;4.38;;;23.10;99.90;;;;;;5035427;28;20103;-79
2023/08/16 09:15:40;;;;;;;10.02;5.22;;;23.10;99.90;;;;;;5034347;28;20060;-79
2023/08/16 09:18:14;;;;;;;7.65;4.18;;;23.00;99.90;;;;;;5033678;28;20029;-78
2023/08/16 09:20:44;;;;;;;6.20;3.75;;;22.90;99.90;;;;;;5034153;28;20041;-78
2023/08/16 09:23:13;;;;;;;8.05;4.45;;;23.00;99.90;;;;;;5035121;28;20518;-78
2023/08/16 09:25:39;;;;;;;8.50;4.78;;;22.90;99.90;;;;;;5034185;28;20482;-79
2023/08/16 09:28:09;;;;;;;6.65;4.00;;;23.00;99.90;;;;;;5033467;28;20025;-79
2023/08/16 09:30:34;;;;;;;9.63;4.90;;;23.00;99.90;;;;;;5034392;28;20108;-79
2023/08/16 09:33:00;;;;;;;7.10;4.72;;;23.00;99.90;;;;;;5033782;28;20486;-79
2023/08/16 09:35:30;;;;;;;9.10;5.32;;;23.00;99.90;;;;;;5033427;28;20092;-79
2023/08/16 09:38:00;;;;;;;9.73;5.50;;;23.10;99.90;;;;;;5033914;28;20597;-77
2023/08/16 09:40:26;;;;;;;10.35;4.40;;;23.10;99.90;;;;;;5034175;28;20494;-79
2023/08/16 09:42:58;;;;;;;10.52;5.10;;;23.10;99.90;;;;;;5037220;28;20021;-79
2023/08/16 09:45:42;;;;;;;9.27;4.70;;;23.10;99.90;;;;;;5047288;28;20027;-79
2023/08/16 09:48:09;;;;;;;5.15;4.03;;;23.20;99.90;;;;;;5043442;28;20026;-79
2023/08/16 09:50:35;;;;;;;6.18;5.30;;;23.30;99.90;;;;;;5045953;28;20109;-79
2023/08/16 09:53:05;;;;;;;6.30;4.75;;;23.30;99.90;;;;;;5047192;28;20025;-78
2023/08/16 09:55:32;;;;;;;6.68;5.05;;;23.20;99.90;;;;;;5046466;28;20030;-79
2023/08/16 09:57:59;;;;;;;9.82;4.53;;;23.20;99.90;;;;;;5042351;28;20036;-78
2023/08/16 10:00:27;;;;;;;7.78;5.00;;;23.20;99.90;;;;;;5035663;28;20402;-78
2023/08/16 10:02:58;;;;;;;9.27;4.72;;;23.20;99.90;;;;;;5033506;28;20588;-79
2023/08/16 10:05:25;;;;;;;8.05;4.68;;;23.20;99.90;;;;;;5033586;28;20127;-79
2023/08/16 10:07:52;;;;;;;7.45;5.32;;;23.30;99.90;;;;;;5031457;28;20025;-79
2023/08/16 10:10:18;;;;;;;9.35;4.35;;;23.20;99.90;;;;;;5035197;28;20116;-79
2023/08/16 10:12:46;;;;;;;7.75;4.45;;;23.20;99.90;;;;;;5033661;28;20079;-78
2023/08/16 10:15:12;;;;;;;8.00;4.15;;;23.30;99.90;;;;;;5034685;28;20426;-78
2023/08/16 10:17:40;;;;;;;8.40;5.25;;;23.30;99.90;;;;;;5033314;28;20071;-79
2023/08/16 10:20:13;;;;;;;9.50;4.88;;;23.20;99.90;;;;;;5031754;28;20025;-78
2023/08/16 10:22:42;;;;;;;13.48;5.53;;;23.20;99.90;;;;;;5033835;28;20029;-78
2023/08/16 10:25:12;;;;;;;10.93;4.85;;;23.20;99.90;;;;;;5031474;28;20030;-77
2023/08/16 10:27:41;;;;;;;19.75;5.57;;;23.20;99.90;;;;;;5033240;28;20021;-78
2023/08/16 10:30:10;;;;;;;14.52;5.43;;;23.20;99.90;;;;;;5032415;28;20128;-78
2023/08/16 10:32:40;;;;;;;10.93;5.13;;;23.20;99.90;;;;;;5032741;28;20078;-78
2023/08/16 10:35:07;;;;;;;8.77;5.45;;;23.20;99.90;;;;;;5048977;28;20036;-78
2023/08/16 10:37:34;;;;;;;64.90;8.65;;;23.20;99.90;;;;;;5032805;28;20025;-78
2023/08/16 10:39:59;;;;;;;25.13;5.95;;;23.30;99.90;;;;;;5032656;28;20164;-78
2023/08/16 10:42:26;;;;;;;10.80;3.78;;;23.30;99.90;;;;;;5034396;28;20606;-78
2023/08/16 10:44:52;;;;;;;7.68;4.63;;;23.20;99.90;;;;;;5032764;28;20026;-78
2023/08/16 10:47:31;;;;;;;8.27;4.45;;;23.30;99.90;;;;;;5033997;28;20399;-79
2023/08/16 10:49:59;;;;;;;5.60;3.28;;;23.30;99.90;;;;;;5033479;28;20022;-78
2023/08/16 10:52:29;;;;;;;12.38;4.13;;;23.40;99.90;;;;;;5016340;28;20476;-80
2023/08/16 10:54:55;;;;;;;4.88;3.78;;;23.30;99.90;;;;;;5012324;28;20049;-81
2023/08/16 10:57:27;;;;;;;8.15;3.95;;;23.20;99.90;;;;;;5028972;28;20706;-80
2023/08/16 11:00:04;;;;;;;;;;;23.30;99.90;;;;;;5012372;28;20041;-80
2023/08/16 11:02:31;;;;;;;11.13;4.20;;;23.40;99.90;;;;;;5012704;28;19909;-80
2023/08/16 11:05:01;;;;;;;6.53;3.67;;;23.30;99.90;;;;;;5013508;28;20021;-80
2023/08/16 11:07:30;;;;;;;11.57;4.05;;;23.40;99.90;;;;;;5013543;28;20018;-79
2023/08/16 11:10:02;;;;;;;4.45;4.05;;;23.40;99.90;;;;;;5013729;28;20025;-80
2023/08/16 11:12:31;;;;;;;6.40;3.75;;;23.30;99.90;;;;;;5012201;28;20041;-78
2023/08/16 11:14:58;;;;;;;9.55;3.90;;;23.40;99.90;;;;;;5013191;28;20060;-80
2023/08/16 11:17:30;;;;;;;6.28;4.13;;;23.40;99.90;;;;;;5013700;28;20041;-80
2023/08/16 11:20:00;;;;;;;6.75;4.20;;;23.30;99.90;;;;;;5026924;28;20049;-79
2023/08/16 11:22:26;;;;;;;6.03;3.95;;;23.30;99.90;;;;;;5045379;28;20550;-80
2023/08/16 11:24:52;;;;;;;7.20;5.22;;;23.30;99.90;;;;;;5044965;28;20125;-80
2023/08/16 11:27:22;;;;;;;13.50;4.30;;;23.40;99.90;;;;;;5045168;28;20026;-79
2023/08/16 11:29:54;;;;;;;8.20;4.45;;;23.40;99.90;;;;;;5044581;28;20033;-79
2023/08/16 11:32:37;;;;;;;7.45;4.00;;;23.50;99.90;;;;;;5044684;28;20484;-79
2023/08/16 11:35:07;;;;;;;8.48;4.68;;;23.50;99.90;;;;;;5044867;28;20173;-79
2023/08/16 11:37:36;;;;;;;6.38;4.78;;;23.60;99.90;;;;;;5044964;28;20451;-80
2023/08/16 11:40:07;;;;;;;10.73;4.53;;;23.70;99.90;;;;;;5044980;28;20021;-79
2023/08/16 11:42:33;;;;;;;5.60;4.20;;;23.90;99.90;;;;;;5018313;28;20022;-79
2023/08/16 11:44:59;;;;;;;8.25;4.85;;;24.10;99.90;;;;;;5011598;28;20026;-79
2023/08/16 11:47:25;;;;;;;6.90;4.55;;;24.30;99.90;;;;;;5013372;28;20040;-79
2023/08/16 11:49:51;;;;;;;5.88;3.40;;;24.70;99.90;;;;;;5026976;28;20133;-79
2023/08/16 11:52:23;;;;;;;8.45;4.72;;;24.90;99.90;;;;;;5030762;28;20026;-79
2023/08/16 11:55:07;;;;;;;8.98;5.05;;;25.20;99.90;;;;;;5016942;28;20030;-79
2023/08/16 11:57:42;;;;;;;7.22;4.50;;;25.20;99.90;;;;;;5012073;28;20105;-79
2023/08/16 12:00:10;;;;;;;7.25;5.00;;;25.20;99.90;;;;;;5019523;28;20021;-79
2023/08/16 12:02:36;;;;;;;6.88;4.10;;;25.20;99.90;;;;;;5033068;28;20067;-79
2023/08/16 12:05:10;;;;;;;7.57;5.20;;;25.10;99.90;;;;;;5029503;28;20476;-78
2023/08/16 12:07:48;;;;;;;10.10;4.53;;;25.10;99.90;;;;;;5028134;28;20510;-79
2023/08/16 12:10:24;;;;;;;5.85;4.00;;;25.10;99.90;;;;;;5028871;28;20392;-79
2023/08/16 12:12:54;;;;;;;5.60;4.07;;;25.10;99.90;;;;;;5028186;28;20033;-79
2023/08/16 12:15:28;;;;;;;5.03;3.60;;;25.30;99.90;;;;;;5031296;28;20069;-79
2023/08/16 12:17:55;;;;;;;5.95;3.85;;;25.10;99.90;;;;;;5030629;28;20415;-79
2023/08/16 12:20:28;;;;;;;6.28;4.40;;;25.00;99.90;;;;;;5031823;28;20026;-79
2023/08/16 12:22:54;;;;;;;5.55;3.63;;;25.00;99.90;;;;;;5011654;28;20030;-79
2023/08/16 12:25:20;;;;;;;6.03;3.47;;;24.80;99.90;;;;;;5011768;28;20037;-80
2023/08/16 12:27:46;;;;;;;6.35;3.58;;;24.90;99.90;;;;;;5012748;28;20038;-77
2023/08/16 12:30:12;;;;;;;20.27;4.80;;;25.00;99.90;;;;;;5012420;28;20038;-80
2023/08/16 12:32:38;;;;;;;6.22;3.45;;;25.10;99.90;;;;;;5000853;28;20022;-79
2023/08/16 12:35:04;;;;;;;3.85;2.75;;;25.20;99.90;;;;;;5007830;28;20510;-78
2023/08/16 12:37:30;;;;;;;6.85;3.90;;;25.30;99.90;;;;;;5027744;28;20060;-79
2023/08/16 12:39:56;;;;;;;8.48;3.67;;;25.30;99.90;;;;;;5031311;28;20053;-79
2023/08/16 12:42:22;;;;;;;5.53;3.40;;;25.30;99.90;;;;;;5032268;28;20030;-79